Terminal Aerodrome Forecast
Issued by NWS Topeka, KS

Home | Current Version | Previous Version | Text Only | Print | Product List | Glossary Off
Versions: 1 2 3 4 5 6 7 8 9 10 11 12

835
FTUS43 KTOP 101120
TAFTOP
TAF
KTOP 101120Z 1012/1112 13004KT P6SM BKN040
     FM101800 17011KT P6SM BKN050
     FM111000 17009KT P6SM BKN025=

USA.gov is the U.S. government's official web portal to all federal, state and local government web resources and services.